sensor_id;sensor_type;location;lat;lon;timestamp;P1;durP1;ratioP1;P2;durP2;ratioP2
43337;SDS011;28933;52.492;13.434;2023-05-07T07:55:02;5.30;;;3.65;;
43337;SDS011;28933;52.492;13.434;2023-05-07T08:08:23;4.72;;;3.75;;
43337;SDS011;28933;52.492;13.434;2023-05-07T08:10:48;6.30;;;3.63;;
43337;SDS011;28933;52.492;13.434;2023-05-07T08:13:15;6.35;;;4.05;;
43337;SDS011;28933;52.492;13.434;2023-05-07T08:15:41;4.85;;;3.50;;
43337;SDS011;28933;52.492;13.434;2023-05-07T08:18:06;4.70;;;3.22;;
43337;SDS011;28933;52.492;13.434;2023-05-07T08:20:32;4.75;;;3.40;;
43337;SDS011;28933;52.492;13.434;2023-05-07T08:22:58;4.25;;;2.97;;
43337;SDS011;28933;52.492;13.434;2023-05-07T08:25:24;4.45;;;3.40;;
43337;SDS011;28933;52.492;13.434;2023-05-07T08:27:49;4.95;;;3.53;;
43337;SDS011;28933;52.492;13.434;2023-05-07T08:30:15;5.03;;;3.33;;
43337;SDS011;28933;52.492;13.434;2023-05-07T08:32:45;4.95;;;3.00;;
43337;SDS011;28933;52.492;13.434;2023-05-07T08:35:11;5.22;;;2.95;;
43337;SDS011;28933;52.492;13.434;2023-05-07T08:37:36;4.78;;;2.85;;
43337;SDS011;28933;52.492;13.434;2023-05-07T08:40:02;4.05;;;2.85;;
43337;SDS011;28933;52.492;13.434;2023-05-07T08:42:28;6.25;;;3.42;;
43337;SDS011;28933;52.492;13.434;2023-05-07T08:44:56;3.97;;;2.83;;
43337;SDS011;28933;52.492;13.434;2023-05-07T08:47:25;4.10;;;3.00;;
43337;SDS011;28933;52.492;13.434;2023-05-07T08:49:59;5.93;;;3.38;;
43337;SDS011;28933;52.492;13.434;2023-05-07T08:52:26;5.13;;;3.40;;
43337;SDS011;28933;52.492;13.434;2023-05-07T08:54:52;5.65;;;3.28;;
43337;SDS011;28933;52.492;13.434;2023-05-07T08:57:17;4.28;;;2.75;;
43337;SDS011;28933;52.492;13.434;2023-05-07T08:59:44;4.30;;;2.65;;
43337;SDS011;28933;52.492;13.434;2023-05-07T09:02:10;4.22;;;2.65;;
43337;SDS011;28933;52.492;13.434;2023-05-07T09:04:36;3.67;;;2.72;;
43337;SDS011;28933;52.492;13.434;2023-05-07T09:07:02;4.82;;;2.92;;
43337;SDS011;28933;52.492;13.434;2023-05-07T09:09:31;5.38;;;2.85;;
43337;SDS011;28933;52.492;13.434;2023-05-07T09:11:58;5.22;;;2.45;;
43337;SDS011;28933;52.492;13.434;2023-05-07T09:14:24;5.00;;;2.58;;
43337;SDS011;28933;52.492;13.434;2023-05-07T09:16:52;5.40;;;2.65;;
43337;SDS011;28933;52.492;13.434;2023-05-07T09:19:22;4.78;;;3.00;;
43337;SDS011;28933;52.492;13.434;2023-05-07T09:21:48;3.50;;;2.33;;
43337;SDS011;28933;52.492;13.434;2023-05-07T09:24:15;3.33;;;2.35;;
43337;SDS011;28933;52.492;13.434;2023-05-07T09:26:41;4.93;;;2.58;;
43337;SDS011;28933;52.492;13.434;2023-05-07T09:29:07;4.78;;;2.80;;
43337;SDS011;28933;52.492;13.434;2023-05-07T09:31:38;3.95;;;2.88;;
43337;SDS011;28933;52.492;13.434;2023-05-07T09:34:04;4.55;;;3.17;;
43337;SDS011;28933;52.492;13.434;2023-05-07T09:36:31;6.60;;;2.67;;
43337;SDS011;28933;52.492;13.434;2023-05-07T09:39:00;4.32;;;2.80;;
43337;SDS011;28933;52.492;13.434;2023-05-07T09:41:26;3.78;;;2.53;;
43337;SDS011;28933;52.492;13.434;2023-05-07T09:43:54;4.22;;;2.63;;
43337;SDS011;28933;52.492;13.434;2023-05-07T09:46:20;3.92;;;2.47;;
43337;SDS011;28933;52.492;13.434;2023-05-07T09:48:50;3.38;;;2.70;;
43337;SDS011;28933;52.492;13.434;2023-05-07T09:51:25;5.40;;;2.53;;
43337;SDS011;28933;52.492;13.434;2023-05-07T09:53:54;3.47;;;2.40;;
43337;SDS011;28933;52.492;13.434;2023-05-07T09:56:22;5.43;;;2.63;;
43337;SDS011;28933;52.492;13.434;2023-05-07T09:58:48;4.38;;;2.55;;
43337;SDS011;28933;52.492;13.434;2023-05-07T10:01:17;6.72;;;3.00;;
43337;SDS011;28933;52.492;13.434;2023-05-07T10:03:46;4.38;;;2.00;;
43337;SDS011;28933;52.492;13.434;2023-05-07T10:06:14;3.40;;;2.20;;
43337;SDS011;28933;52.492;13.434;2023-05-07T10:08:40;3.17;;;2.10;;
43337;SDS011;28933;52.492;13.434;2023-05-07T10:11:07;3.58;;;2.28;;
43337;SDS011;28933;52.492;13.434;2023-05-07T10:13:33;3.08;;;1.77;;
43337;SDS011;28933;52.492;13.434;2023-05-07T10:16:01;3.42;;;2.00;;
43337;SDS011;28933;52.492;13.434;2023-05-07T10:18:28;3.60;;;1.90;;
43337;SDS011;28933;52.492;13.434;2023-05-07T10:21:04;2.85;;;1.80;;
43337;SDS011;28933;52.492;13.434;2023-05-07T10:23:33;4.43;;;1.80;;
43337;SDS011;28933;52.492;13.434;2023-05-07T10:26:01;2.10;;;1.50;;
43337;SDS011;28933;52.492;13.434;2023-05-07T10:28:29;2.83;;;1.85;;
43337;SDS011;28933;52.492;13.434;2023-05-07T10:33:44;2.50;;;1.60;;
43337;SDS011;28933;52.492;13.434;2023-05-07T10:36:11;3.70;;;1.85;;
43337;SDS011;28933;52.492;13.434;2023-05-07T10:38:37;3.20;;;1.60;;
43337;SDS011;28933;52.492;13.434;2023-05-07T10:41:05;3.40;;;2.00;;
43337;SDS011;28933;52.492;13.434;2023-05-07T10:43:44;2.63;;;1.63;;
43337;SDS011;28933;52.492;13.434;2023-05-07T10:46:10;3.10;;;1.85;;
43337;SDS011;28933;52.492;13.434;2023-05-07T10:51:31;1.38;;;1.13;;
43337;SDS011;28933;52.492;13.434;2023-05-07T10:56:36;2.10;;;1.60;;
43337;SDS011;28933;52.492;13.434;2023-05-07T11:04:32;1.90;;;1.48;;
43337;SDS011;28933;52.492;13.434;2023-05-07T11:15:01;2.60;;;1.90;;
43337;SDS011;28933;52.492;13.434;2023-05-07T11:17:52;1.90;;;1.48;;
43337;SDS011;28933;52.492;13.434;2023-05-07T11:26:07;2.50;;;1.80;;
43337;SDS011;28933;52.492;13.434;2023-05-07T11:28:38;2.80;;;1.77;;
43337;SDS011;28933;52.492;13.434;2023-05-07T11:31:05;2.75;;;1.77;;
43337;SDS011;28933;52.492;13.434;2023-05-07T11:33:32;3.03;;;1.67;;
43337;SDS011;28933;52.492;13.434;2023-05-07T11:35:59;2.75;;;1.80;;
43337;SDS011;28933;52.492;13.434;2023-05-07T11:38:25;2.63;;;1.58;;
43337;SDS011;28933;52.492;13.434;2023-05-07T11:40:52;2.13;;;1.48;;
43337;SDS011;28933;52.492;13.434;2023-05-07T11:43:18;3.08;;;1.85;;
43337;SDS011;28933;52.492;13.434;2023-05-07T11:45:45;2.92;;;1.85;;
43337;SDS011;28933;52.492;13.434;2023-05-07T11:48:15;4.97;;;2.30;;
43337;SDS011;28933;52.492;13.434;2023-05-07T11:50:59;7.07;;;1.90;;
43337;SDS011;28933;52.492;13.434;2023-05-07T11:53:35;2.35;;;1.42;;
43337;SDS011;28933;52.492;13.434;2023-05-07T11:56:12;3.33;;;1.60;;
43337;SDS011;28933;52.492;13.434;2023-05-07T11:58:39;3.70;;;2.20;;
43337;SDS011;28933;52.492;13.434;2023-05-07T12:01:06;2.10;;;1.63;;
43337;SDS011;28933;52.492;13.434;2023-05-07T12:03:36;2.20;;;1.50;;
43337;SDS011;28933;52.492;13.434;2023-05-07T12:06:07;2.53;;;1.70;;
43337;SDS011;28933;52.492;13.434;2023-05-07T12:08:35;2.60;;;1.73;;
43337;SDS011;28933;52.492;13.434;2023-05-07T12:11:02;2.67;;;1.58;;
43337;SDS011;28933;52.492;13.434;2023-05-07T12:13:28;2.13;;;1.45;;
43337;SDS011;28933;52.492;13.434;2023-05-07T12:15:57;2.92;;;1.65;;
43337;SDS011;28933;52.492;13.434;2023-05-07T12:18:23;2.60;;;1.95;;
43337;SDS011;28933;52.492;13.434;2023-05-07T12:20:50;1.80;;;1.55;;
43337;SDS011;28933;52.492;13.434;2023-05-07T12:23:16;2.13;;;1.20;;
43337;SDS011;28933;52.492;13.434;2023-05-07T12:25:42;2.38;;;1.48;;
43337;SDS011;28933;52.492;13.434;2023-05-07T12:28:13;2.38;;;1.25;;
43337;SDS011;28933;52.492;13.434;2023-05-07T12:30:40;2.40;;;1.52;;
43337;SDS011;28933;52.492;13.434;2023-05-07T12:33:07;3.08;;;1.73;;
43337;SDS011;28933;52.492;13.434;2023-05-07T12:35:40;4.38;;;1.70;;
43337;SDS011;28933;52.492;13.434;2023-05-07T12:38:08;2.83;;;1.65;;
43337;SDS011;28933;52.492;13.434;2023-05-07T12:40:38;2.20;;;1.40;;
43337;SDS011;28933;52.492;13.434;2023-05-07T12:43:04;2.10;;;1.35;;
43337;SDS011;28933;52.492;13.434;2023-05-07T12:45:30;1.75;;;1.30;;
43337;SDS011;28933;52.492;13.434;2023-05-07T12:47:56;2.83;;;1.75;;
43337;SDS011;28933;52.492;13.434;2023-05-07T12:50:26;2.13;;;1.63;;
43337;SDS011;28933;52.492;13.434;2023-05-07T12:52:57;2.83;;;1.63;;
43337;SDS011;28933;52.492;13.434;2023-05-07T12:55:24;2.03;;;1.50;;
43337;SDS011;28933;52.492;13.434;2023-05-07T12:57:50;4.95;;;1.83;;
43337;SDS011;28933;52.492;13.434;2023-05-07T13:00:17;1.98;;;1.38;;
43337;SDS011;28933;52.492;13.434;2023-05-07T13:03:05;1.70;;;1.48;;
43337;SDS011;28933;52.492;13.434;2023-05-07T13:05:31;2.78;;;1.40;;
43337;SDS011;28933;52.492;13.434;2023-05-07T13:07:57;2.38;;;1.60;;
43337;SDS011;28933;52.492;13.434;2023-05-07T13:10:23;1.60;;;1.20;;
43337;SDS011;28933;52.492;13.434;2023-05-07T13:12:49;2.58;;;1.50;;
43337;SDS011;28933;52.492;13.434;2023-05-07T13:15:15;1.65;;;1.35;;
43337;SDS011;28933;52.492;13.434;2023-05-07T13:17:41;1.50;;;1.17;;
43337;SDS011;28933;52.492;13.434;2023-05-07T13:20:08;1.42;;;1.25;;
43337;SDS011;28933;52.492;13.434;2023-05-07T13:22:35;1.95;;;1.20;;
43337;SDS011;28933;52.492;13.434;2023-05-07T13:25:01;1.25;;;1.02;;
43337;SDS011;28933;52.492;13.434;2023-05-07T13:27:26;1.85;;;1.42;;
43337;SDS011;28933;52.492;13.434;2023-05-07T13:29:52;2.35;;;1.23;;
43337;SDS011;28933;52.492;13.434;2023-05-07T13:32:17;2.08;;;1.30;;
43337;SDS011;28933;52.492;13.434;2023-05-07T13:34:43;1.75;;;1.23;;
43337;SDS011;28933;52.492;13.434;2023-05-07T13:37:09;2.20;;;1.30;;
43337;SDS011;28933;52.492;13.434;2023-05-07T13:39:34;2.38;;;1.42;;
43337;SDS011;28933;52.492;13.434;2023-05-07T13:42:00;1.35;;;1.00;;
43337;SDS011;28933;52.492;13.434;2023-05-07T13:44:26;2.35;;;1.38;;
43337;SDS011;28933;52.492;13.434;2023-05-07T13:46:52;2.42;;;1.52;;
43337;SDS011;28933;52.492;13.434;2023-05-07T13:49:17;1.83;;;1.27;;
43337;SDS011;28933;52.492;13.434;2023-05-07T13:51:43;1.52;;;1.20;;
43337;SDS011;28933;52.492;13.434;2023-05-07T13:54:08;2.10;;;1.20;;
43337;SDS011;28933;52.492;13.434;2023-05-07T13:56:34;1.58;;;1.10;;
43337;SDS011;28933;52.492;13.434;2023-05-07T13:59:00;2.83;;;1.23;;
43337;SDS011;28933;52.492;13.434;2023-05-07T14:01:26;1.92;;;1.30;;
43337;SDS011;28933;52.492;13.434;2023-05-07T14:03:52;2.47;;;1.83;;
43337;SDS011;28933;52.492;13.434;2023-05-07T14:06:17;1.55;;;1.10;;
43337;SDS011;28933;52.492;13.434;2023-05-07T14:08:43;2.40;;;1.83;;
43337;SDS011;28933;52.492;13.434;2023-05-07T14:11:09;2.17;;;1.40;;
43337;SDS011;28933;52.492;13.434;2023-05-07T14:13:34;3.60;;;1.60;;
43337;SDS011;28933;52.492;13.434;2023-05-07T14:16:00;2.00;;;1.50;;
43337;SDS011;28933;52.492;13.434;2023-05-07T14:18:26;6.65;;;1.50;;
43337;SDS011;28933;52.492;13.434;2023-05-07T14:20:53;1.95;;;1.42;;
43337;SDS011;28933;52.492;13.434;2023-05-07T14:23:19;1.58;;;1.05;;
43337;SDS011;28933;52.492;13.434;2023-05-07T14:25:47;2.20;;;1.42;;
43337;SDS011;28933;52.492;13.434;2023-05-07T14:28:12;2.40;;;1.48;;
43337;SDS011;28933;52.492;13.434;2023-05-07T14:30:38;3.22;;;1.27;;
43337;SDS011;28933;52.492;13.434;2023-05-07T14:33:04;2.00;;;1.20;;
43337;SDS011;28933;52.492;13.434;2023-05-07T14:35:29;1.50;;;1.40;;
43337;SDS011;28933;52.492;13.434;2023-05-07T14:37:55;2.05;;;1.60;;
43337;SDS011;28933;52.492;13.434;2023-05-07T14:40:21;3.50;;;1.92;;
43337;SDS011;28933;52.492;13.434;2023-05-07T14:42:46;1.92;;;1.05;;
43337;SDS011;28933;52.492;13.434;2023-05-07T14:45:12;1.80;;;1.10;;
43337;SDS011;28933;52.492;13.434;2023-05-07T14:47:37;2.58;;;1.73;;
43337;SDS011;28933;52.492;13.434;2023-05-07T14:50:03;2.72;;;1.40;;
43337;SDS011;28933;52.492;13.434;2023-05-07T14:52:29;3.00;;;1.27;;
43337;SDS011;28933;52.492;13.434;2023-05-07T14:54:55;1.50;;;1.20;;
43337;SDS011;28933;52.492;13.434;2023-05-07T14:57:20;2.20;;;1.35;;
43337;SDS011;28933;52.492;13.434;2023-05-07T14:59:46;2.92;;;1.23;;
43337;SDS011;28933;52.492;13.434;2023-05-07T15:02:12;2.28;;;1.30;;
43337;SDS011;28933;52.492;13.434;2023-05-07T15:04:43;2.47;;;1.20;;
43337;SDS011;28933;52.492;13.434;2023-05-07T15:07:12;1.85;;;1.10;;
43337;SDS011;28933;52.492;13.434;2023-05-07T15:09:44;2.35;;;1.50;;
43337;SDS011;28933;52.492;13.434;2023-05-07T15:12:10;1.45;;;1.20;;
43337;SDS011;28933;52.492;13.434;2023-05-07T15:14:37;2.47;;;1.58;;
43337;SDS011;28933;52.492;13.434;2023-05-07T15:17:03;1.65;;;1.50;;
43337;SDS011;28933;52.492;13.434;2023-05-07T15:19:28;2.40;;;1.35;;
43337;SDS011;28933;52.492;13.434;2023-05-07T15:21:58;2.72;;;1.63;;
43337;SDS011;28933;52.492;13.434;2023-05-07T15:24:27;7.82;;;1.48;;
43337;SDS011;28933;52.492;13.434;2023-05-07T15:26:53;1.50;;;1.38;;
43337;SDS011;28933;52.492;13.434;2023-05-07T15:29:19;3.15;;;1.30;;
43337;SDS011;28933;52.492;13.434;2023-05-07T15:31:45;1.80;;;1.45;;
43337;SDS011;28933;52.492;13.434;2023-05-07T15:34:11;1.52;;;1.20;;
43337;SDS011;28933;52.492;13.434;2023-05-07T15:36:36;1.80;;;1.02;;
43337;SDS011;28933;52.492;13.434;2023-05-07T15:39:02;1.80;;;1.40;;
43337;SDS011;28933;52.492;13.434;2023-05-07T15:41:29;1.95;;;1.27;;
43337;SDS011;28933;52.492;13.434;2023-05-07T15:43:55;2.13;;;1.23;;
43337;SDS011;28933;52.492;13.434;2023-05-07T15:46:21;2.35;;;1.58;;
43337;SDS011;28933;52.492;13.434;2023-05-07T15:48:51;2.13;;;1.38;;
43337;SDS011;28933;52.492;13.434;2023-05-07T15:51:17;1.88;;;1.20;;
43337;SDS011;28933;52.492;13.434;2023-05-07T15:53:44;1.55;;;1.23;;
43337;SDS011;28933;52.492;13.434;2023-05-07T15:56:11;3.05;;;1.73;;
43337;SDS011;28933;52.492;13.434;2023-05-07T15:58:37;5.13;;;1.58;;
43337;SDS011;28933;52.492;13.434;2023-05-07T16:01:03;2.50;;;1.33;;
43337;SDS011;28933;52.492;13.434;2023-05-07T16:03:29;2.63;;;1.52;;
43337;SDS011;28933;52.492;13.434;2023-05-07T16:05:55;3.22;;;1.80;;
43337;SDS011;28933;52.492;13.434;2023-05-07T16:08:22;2.92;;;1.48;;
43337;SDS011;28933;52.492;13.434;2023-05-07T16:10:50;3.20;;;1.77;;
43337;SDS011;28933;52.492;13.434;2023-05-07T16:13:16;2.72;;;1.80;;
43337;SDS011;28933;52.492;13.434;2023-05-07T16:15:45;2.53;;;1.60;;
43337;SDS011;28933;52.492;13.434;2023-05-07T16:18:11;2.40;;;2.05;;
43337;SDS011;28933;52.492;13.434;2023-05-07T16:20:40;3.25;;;1.33;;
43337;SDS011;28933;52.492;13.434;2023-05-07T16:23:07;3.95;;;1.20;;
43337;SDS011;28933;52.492;13.434;2023-05-07T16:25:32;2.30;;;1.70;;
43337;SDS011;28933;52.492;13.434;2023-05-07T16:27:58;1.48;;;1.15;;
43337;SDS011;28933;52.492;13.434;2023-05-07T16:30:24;2.28;;;1.58;;
43337;SDS011;28933;52.492;13.434;2023-05-07T16:32:49;2.22;;;1.70;;
43337;SDS011;28933;52.492;13.434;2023-05-07T16:35:15;2.63;;;1.58;;
43337;SDS011;28933;52.492;13.434;2023-05-07T16:37:41;2.38;;;1.48;;
43337;SDS011;28933;52.492;13.434;2023-05-07T16:40:06;2.75;;;1.65;;
43337;SDS011;28933;52.492;13.434;2023-05-07T16:42:33;3.20;;;1.40;;
43337;SDS011;28933;52.492;13.434;2023-05-07T16:45:00;4.68;;;1.63;;
43337;SDS011;28933;52.492;13.434;2023-05-07T16:47:25;2.05;;;1.58;;
43337;SDS011;28933;52.492;13.434;2023-05-07T16:49:51;2.10;;;1.60;;
43337;SDS011;28933;52.492;13.434;2023-05-07T16:52:17;2.65;;;1.40;;
43337;SDS011;28933;52.492;13.434;2023-05-07T16:54:42;1.77;;;1.38;;
43337;SDS011;28933;52.492;13.434;2023-05-07T16:57:08;2.33;;;1.15;;
43337;SDS011;28933;52.492;13.434;2023-05-07T16:59:34;2.13;;;1.60;;
43337;SDS011;28933;52.492;13.434;2023-05-07T17:01:59;2.40;;;1.38;;
43337;SDS011;28933;52.492;13.434;2023-05-07T17:04:25;2.88;;;1.65;;
43337;SDS011;28933;52.492;13.434;2023-05-07T17:06:51;2.05;;;1.23;;
43337;SDS011;28933;52.492;13.434;2023-05-07T17:09:17;2.20;;;1.30;;
43337;SDS011;28933;52.492;13.434;2023-05-07T17:11:42;1.77;;;1.48;;
43337;SDS011;28933;52.492;13.434;2023-05-07T17:14:08;1.73;;;1.45;;
43337;SDS011;28933;52.492;13.434;2023-05-07T17:16:35;2.05;;;1.70;;
43337;SDS011;28933;52.492;13.434;2023-05-07T17:19:00;2.78;;;1.08;;
43337;SDS011;28933;52.492;13.434;2023-05-07T17:21:27;2.35;;;1.50;;
43337;SDS011;28933;52.492;13.434;2023-05-07T17:23:53;1.52;;;1.23;;
43337;SDS011;28933;52.492;13.434;2023-05-07T17:26:18;2.08;;;1.23;;
43337;SDS011;28933;52.492;13.434;2023-05-07T17:28:45;2.20;;;1.50;;
43337;SDS011;28933;52.492;13.434;2023-05-07T17:31:10;1.85;;;1.40;;
43337;SDS011;28933;52.492;13.434;2023-05-07T17:33:36;3.58;;;2.08;;
43337;SDS011;28933;52.492;13.434;2023-05-07T17:36:02;1.88;;;1.23;;
43337;SDS011;28933;52.492;13.434;2023-05-07T17:38:28;3.53;;;1.30;;
43337;SDS011;28933;52.492;13.434;2023-05-07T17:40:54;2.28;;;1.45;;
43337;SDS011;28933;52.492;13.434;2023-05-07T17:43:20;2.40;;;1.60;;
43337;SDS011;28933;52.492;13.434;2023-05-07T17:45:47;2.97;;;2.05;;
43337;SDS011;28933;52.492;13.434;2023-05-07T17:48:16;2.78;;;1.60;;
43337;SDS011;28933;52.492;13.434;2023-05-07T17:50:42;6.55;;;2.35;;
43337;SDS011;28933;52.492;13.434;2023-05-07T17:53:08;2.78;;;1.35;;
43337;SDS011;28933;52.492;13.434;2023-05-07T17:55:35;3.50;;;1.20;;
43337;SDS011;28933;52.492;13.434;2023-05-07T17:58:05;3.08;;;1.40;;
43337;SDS011;28933;52.492;13.434;2023-05-07T18:00:31;1.95;;;1.30;;
43337;SDS011;28933;52.492;13.434;2023-05-07T18:02:57;2.25;;;1.67;;
43337;SDS011;28933;52.492;13.434;2023-05-07T18:05:27;2.15;;;1.30;;
43337;SDS011;28933;52.492;13.434;2023-05-07T18:07:53;1.67;;;1.30;;
43337;SDS011;28933;52.492;13.434;2023-05-07T18:10:20;2.55;;;1.52;;
43337;SDS011;28933;52.492;13.434;2023-05-07T18:12:47;2.03;;;1.35;;
43337;SDS011;28933;52.492;13.434;2023-05-07T18:15:13;2.00;;;1.35;;
43337;SDS011;28933;52.492;13.434;2023-05-07T18:17:39;2.45;;;1.50;;
43337;SDS011;28933;52.492;13.434;2023-05-07T18:20:05;2.25;;;1.30;;
43337;SDS011;28933;52.492;13.434;2023-05-07T18:22:33;2.25;;;1.70;;
43337;SDS011;28933;52.492;13.434;2023-05-07T18:24:59;2.10;;;1.15;;
43337;SDS011;28933;52.492;13.434;2023-05-07T18:27:25;1.75;;;1.20;;
43337;SDS011;28933;52.492;13.434;2023-05-07T18:29:50;1.85;;;1.30;;
43337;SDS011;28933;52.492;13.434;2023-05-07T18:32:16;2.80;;;1.50;;
43337;SDS011;28933;52.492;13.434;2023-05-07T18:34:42;4.40;;;1.40;;
43337;SDS011;28933;52.492;13.434;2023-05-07T18:37:07;1.83;;;1.50;;
43337;SDS011;28933;52.492;13.434;2023-05-07T18:39:34;2.50;;;1.38;;
43337;SDS011;28933;52.492;13.434;2023-05-07T18:42:00;4.28;;;1.55;;
43337;SDS011;28933;52.492;13.434;2023-05-07T18:44:25;3.97;;;1.77;;
43337;SDS011;28933;52.492;13.434;2023-05-07T18:46:51;2.55;;;1.40;;
43337;SDS011;28933;52.492;13.434;2023-05-07T18:49:17;3.10;;;1.50;;
43337;SDS011;28933;52.492;13.434;2023-05-07T18:51:42;1.92;;;1.60;;
43337;SDS011;28933;52.492;13.434;2023-05-07T18:54:09;2.20;;;1.50;;
43337;SDS011;28933;52.492;13.434;2023-05-07T18:56:34;2.00;;;1.50;;
43337;SDS011;28933;52.492;13.434;2023-05-07T18:59:00;2.22;;;1.77;;
43337;SDS011;28933;52.492;13.434;2023-05-07T19:01:25;2.67;;;1.65;;
43337;SDS011;28933;52.492;13.434;2023-05-07T19:03:51;3.30;;;1.60;;
43337;SDS011;28933;52.492;13.434;2023-05-07T19:06:17;3.35;;;1.77;;
43337;SDS011;28933;52.492;13.434;2023-05-07T19:08:42;3.28;;;2.00;;
43337;SDS011;28933;52.492;13.434;2023-05-07T19:11:08;2.40;;;1.80;;
43337;SDS011;28933;52.492;13.434;2023-05-07T19:13:33;2.78;;;1.60;;
43337;SDS011;28933;52.492;13.434;2023-05-07T19:15:59;3.22;;;1.75;;
43337;SDS011;28933;52.492;13.434;2023-05-07T19:18:25;2.53;;;1.63;;
43337;SDS011;28933;52.492;13.434;2023-05-07T19:20:51;2.65;;;1.73;;
43337;SDS011;28933;52.492;13.434;2023-05-07T19:23:16;2.35;;;1.70;;
43337;SDS011;28933;52.492;13.434;2023-05-07T19:25:42;3.03;;;2.10;;
43337;SDS011;28933;52.492;13.434;2023-05-07T19:28:08;2.15;;;1.65;;
43337;SDS011;28933;52.492;13.434;2023-05-07T19:30:36;2.88;;;1.90;;
43337;SDS011;28933;52.492;13.434;2023-05-07T19:33:03;3.55;;;1.90;;
43337;SDS011;28933;52.492;13.434;2023-05-07T19:35:30;2.72;;;1.98;;
43337;SDS011;28933;52.492;13.434;2023-05-07T19:37:56;3.22;;;2.10;;
43337;SDS011;28933;52.492;13.434;2023-05-07T19:40:21;2.47;;;1.60;;
43337;SDS011;28933;52.492;13.434;2023-05-07T19:42:47;2.47;;;1.88;;
43337;SDS011;28933;52.492;13.434;2023-05-07T19:45:15;2.58;;;1.67;;
43337;SDS011;28933;52.492;13.434;2023-05-07T19:47:41;3.60;;;1.75;;
43337;SDS011;28933;52.492;13.434;2023-05-07T19:50:07;4.90;;;1.75;;
43337;SDS011;28933;52.492;13.434;2023-05-07T19:52:33;2.55;;;2.08;;
43337;SDS011;28933;52.492;13.434;2023-05-07T19:55:00;3.08;;;1.77;;
43337;SDS011;28933;52.492;13.434;2023-05-07T19:57:25;3.40;;;2.38;;
43337;SDS011;28933;52.492;13.434;2023-05-07T19:59:51;6.28;;;2.78;;
43337;SDS011;28933;52.492;13.434;2023-05-07T20:02:17;2.58;;;1.88;;
43337;SDS011;28933;52.492;13.434;2023-05-07T20:04:43;2.65;;;1.90;;
43337;SDS011;28933;52.492;13.434;2023-05-07T20:07:08;2.47;;;1.83;;
43337;SDS011;28933;52.492;13.434;2023-05-07T20:09:34;3.10;;;1.77;;
43337;SDS011;28933;52.492;13.434;2023-05-07T20:12:00;3.47;;;1.92;;
43337;SDS011;28933;52.492;13.434;2023-05-07T20:14:25;2.30;;;2.03;;
43337;SDS011;28933;52.492;13.434;2023-05-07T20:16:51;6.18;;;2.58;;
43337;SDS011;28933;52.492;13.434;2023-05-07T20:19:17;3.33;;;2.20;;
43337;SDS011;28933;52.492;13.434;2023-05-07T20:21:43;3.65;;;2.25;;
43337;SDS011;28933;52.492;13.434;2023-05-07T20:24:08;4.72;;;1.95;;
43337;SDS011;28933;52.492;13.434;2023-05-07T20:26:34;3.17;;;2.25;;
43337;SDS011;28933;52.492;13.434;2023-05-07T20:29:00;3.53;;;2.47;;
43337;SDS011;28933;52.492;13.434;2023-05-07T20:31:27;4.78;;;2.28;;
43337;SDS011;28933;52.492;13.434;2023-05-07T20:33:53;3.70;;;2.50;;
43337;SDS011;28933;52.492;13.434;2023-05-07T20:36:18;5.40;;;2.70;;
43337;SDS011;28933;52.492;13.434;2023-05-07T20:38:44;3.70;;;2.80;;
43337;SDS011;28933;52.492;13.434;2023-05-07T20:41:10;4.15;;;2.60;;
43337;SDS011;28933;52.492;13.434;2023-05-07T20:43:38;4.28;;;2.75;;
43337;SDS011;28933;52.492;13.434;2023-05-07T20:46:04;5.85;;;3.33;;
43337;SDS011;28933;52.492;13.434;2023-05-07T20:48:31;3.97;;;2.72;;
43337;SDS011;28933;52.492;13.434;2023-05-07T20:50:57;4.18;;;2.80;;
43337;SDS011;28933;52.492;13.434;2023-05-07T20:53:24;4.15;;;2.65;;
43337;SDS011;28933;52.492;13.434;2023-05-07T20:55:53;4.07;;;2.70;;
43337;SDS011;28933;52.492;13.434;2023-05-07T20:58:18;3.70;;;2.38;;
43337;SDS011;28933;52.492;13.434;2023-05-07T21:00:44;4.18;;;2.50;;
43337;SDS011;28933;52.492;13.434;2023-05-07T21:03:09;3.67;;;2.70;;
43337;SDS011;28933;52.492;13.434;2023-05-07T21:05:35;4.68;;;2.78;;
43337;SDS011;28933;52.492;13.434;2023-05-07T21:08:01;3.97;;;2.72;;
43337;SDS011;28933;52.492;13.434;2023-05-07T21:10:28;3.92;;;3.05;;
43337;SDS011;28933;52.492;13.434;2023-05-07T21:12:54;4.00;;;2.55;;
43337;SDS011;28933;52.492;13.434;2023-05-07T21:15:20;3.88;;;2.40;;
43337;SDS011;28933;52.492;13.434;2023-05-07T21:17:46;3.67;;;2.80;;
43337;SDS011;28933;52.492;13.434;2023-05-07T21:20:11;4.53;;;2.90;;
43337;SDS011;28933;52.492;13.434;2023-05-07T21:22:37;4.47;;;2.85;;
43337;SDS011;28933;52.492;13.434;2023-05-07T21:25:03;4.18;;;3.20;;
43337;SDS011;28933;52.492;13.434;2023-05-07T21:27:29;4.05;;;2.75;;
43337;SDS011;28933;52.492;13.434;2023-05-07T21:29:55;4.20;;;2.70;;
43337;SDS011;28933;52.492;13.434;2023-05-07T21:32:27;4.20;;;2.95;;
43337;SDS011;28933;52.492;13.434;2023-05-07T21:34:53;5.03;;;2.92;;
43337;SDS011;28933;52.492;13.434;2023-05-07T21:37:20;4.00;;;2.95;;
43337;SDS011;28933;52.492;13.434;2023-05-07T21:39:45;4.15;;;2.50;;
43337;SDS011;28933;52.492;13.434;2023-05-07T21:42:11;4.22;;;3.00;;
43337;SDS011;28933;52.492;13.434;2023-05-07T21:44:37;3.70;;;3.10;;
43337;SDS011;28933;52.492;13.434;2023-05-07T21:47:02;3.47;;;2.70;;
43337;SDS011;28933;52.492;13.434;2023-05-07T21:49:28;4.00;;;2.60;;
43337;SDS011;28933;52.492;13.434;2023-05-07T21:51:53;4.53;;;3.30;;
43337;SDS011;28933;52.492;13.434;2023-05-07T21:54:20;5.07;;;3.50;;
43337;SDS011;28933;52.492;13.434;2023-05-07T21:56:45;4.00;;;2.97;;
43337;SDS011;28933;52.492;13.434;2023-05-07T21:59:11;4.18;;;3.15;;
43337;SDS011;28933;52.492;13.434;2023-05-07T22:01:37;5.40;;;3.40;;
43337;SDS011;28933;52.492;13.434;2023-05-07T22:04:02;4.25;;;3.70;;
43337;SDS011;28933;52.492;13.434;2023-05-07T22:06:28;4.30;;;3.60;;
43337;SDS011;28933;52.492;13.434;2023-05-07T22:08:54;6.47;;;3.88;;
43337;SDS011;28933;52.492;13.434;2023-05-07T22:11:19;7.38;;;3.33;;
43337;SDS011;28933;52.492;13.434;2023-05-07T22:13:45;4.32;;;3.08;;
43337;SDS011;28933;52.492;13.434;2023-05-07T22:16:11;5.30;;;4.22;;
43337;SDS011;28933;52.492;13.434;2023-05-07T22:18:37;5.00;;;3.53;;
43337;SDS011;28933;52.492;13.434;2023-05-07T22:21:02;5.18;;;4.00;;
43337;SDS011;28933;52.492;13.434;2023-05-07T22:23:28;6.05;;;3.50;;
43337;SDS011;28933;52.492;13.434;2023-05-07T22:25:54;4.90;;;3.40;;
43337;SDS011;28933;52.492;13.434;2023-05-07T22:28:19;7.57;;;4.18;;
43337;SDS011;28933;52.492;13.434;2023-05-07T22:30:45;4.47;;;3.83;;
43337;SDS011;28933;52.492;13.434;2023-05-07T22:33:11;4.97;;;3.65;;
43337;SDS011;28933;52.492;13.434;2023-05-07T22:35:37;4.90;;;3.75;;
43337;SDS011;28933;52.492;13.434;2023-05-07T22:38:03;5.15;;;3.47;;
43337;SDS011;28933;52.492;13.434;2023-05-07T22:40:28;5.25;;;4.00;;
43337;SDS011;28933;52.492;13.434;2023-05-07T22:42:54;4.55;;;3.22;;
43337;SDS011;28933;52.492;13.434;2023-05-07T22:45:19;4.10;;;3.22;;
43337;SDS011;28933;52.492;13.434;2023-05-07T22:47:45;5.18;;;3.58;;
43337;SDS011;28933;52.492;13.434;2023-05-07T22:50:11;4.78;;;3.85;;
43337;SDS011;28933;52.492;13.434;2023-05-07T22:52:36;5.50;;;3.80;;
43337;SDS011;28933;52.492;13.434;2023-05-07T22:55:02;4.95;;;3.58;;
43337;SDS011;28933;52.492;13.434;2023-05-07T22:57:28;5.40;;;3.65;;
43337;SDS011;28933;52.492;13.434;2023-05-07T22:59:54;4.65;;;3.53;;
43337;SDS011;28933;52.492;13.434;2023-05-07T23:02:20;4.65;;;3.47;;